Time;durP1;ratioP1;P1;durP2;ratioP2;P2;SDS_P1;SDS_P2;PMS_P1;PMS_P2;Temp;Humidity;BMP_temperature;BMP_pressure;BME280_temperature;BME280_humidity;BME280_pressure;Samples;Min_cycle;Max_cycle;Signal;HPM_P1;HPM_P2
2023/06/08 00:01:25;;;;;;;;;;;16.10;68.40;;;;;;5072538;28;19908;-37
2023/06/08 00:03:52;;;;;;;;;;;16.10;68.70;;;;;;5072417;28;19916;-35
2023/06/08 00:06:20;;;;;;;;;;;16.10;68.90;;;;;;5071230;28;19948;-35
2023/06/08 00:08:46;;;;;;;;;;;16.00;69.20;;;;;;5071171;28;19954;-33
2023/06/08 00:11:12;;;;;;;;;;;16.00;69.40;;;;;;5070991;28;19913;-36
2023/06/08 00:13:37;;;;;;;;;;;16.00;69.30;;;;;;5072417;28;20324;-35
2023/06/08 00:16:04;;;;;;;;;;;15.90;69.40;;;;;;5072425;28;20279;-35
2023/06/08 00:18:30;;;;;;;;;;;15.90;69.20;;;;;;5072375;28;19956;-36
2023/06/08 00:20:56;;;;;;;;;;;16.00;69.20;;;;;;5070989;28;19908;-35
2023/06/08 00:23:21;;;;;;;;;;;16.00;69.20;;;;;;5072455;28;20351;-36
2023/06/08 00:25:47;;;;;;;;;;;16.00;69.30;;;;;;5072268;28;19916;-35
2023/06/08 00:28:13;;;;;;;;;;;15.90;69.20;;;;;;5072250;28;19908;-34
2023/06/08 00:30:38;;;;;;;;;;;15.90;69.40;;;;;;5072263;28;19989;-35
2023/06/08 00:33:04;;;;;;;;;;;15.80;69.30;;;;;;5072039;28;20374;-35
2023/06/08 00:35:30;;;;;;;;;;;15.80;69.50;;;;;;5072070;28;19974;-36
2023/06/08 00:37:56;;;;;;;;;;;15.80;69.50;;;;;;5072252;28;20235;-35
2023/06/08 00:40:21;;;;;;;;;;;15.70;69.60;;;;;;5072083;28;19996;-38
2023/06/08 00:42:46;;;;;;;;;;;15.70;69.80;;;;;;5070636;28;19909;-35
2023/06/08 00:45:12;;;;;;;;;;;15.60;70.20;;;;;;5072359;28;19908;-34
2023/06/08 00:47:37;;;;;;;;;;;15.50;70.00;;;;;;5071964;28;19914;-34
2023/06/08 00:50:04;;;;;;;;;;;15.50;70.00;;;;;;5072011;28;19912;-34
2023/06/08 00:52:30;;;;;;;;;;;15.50;69.90;;;;;;5072030;28;19912;-36
2023/06/08 00:54:58;;;;;;;;;;;15.50;70.10;;;;;;5071873;28;19909;-36
2023/06/08 00:57:25;;;;;;;;;;;15.50;70.00;;;;;;5071982;28;19908;-35
2023/06/08 00:59:52;;;;;;;;;;;15.50;70.00;;;;;;5071834;28;20432;-41
2023/06/08 01:02:17;;;;;;;;;;;15.50;70.80;;;;;;5074312;28;19916;-34
2023/06/08 01:04:43;;;;;;;;;;;15.40;70.50;;;;;;5075817;28;20371;-36
2023/06/08 01:07:14;;;;;;;;;;;15.40;71.00;;;;;;5076013;28;19912;-36
2023/06/08 01:09:43;;;;;;;;;;;15.30;70.70;;;;;;5076212;28;19924;-36
2023/06/08 01:12:28;;;;;;;;;;;15.30;70.80;;;;;;5075904;28;19908;-35
2023/06/08 01:15:25;;;;;;;;;;;15.20;71.10;;;;;;5075758;28;19908;-34
2023/06/08 01:17:57;;;;;;;;;;;15.20;71.40;;;;;;5030999;28;19908;-33
2023/06/08 01:20:29;;;;;;;;;;;15.10;71.30;;;;;;5075715;28;20283;-35
2023/06/08 01:23:03;;;;;;;;;;;15.10;71.30;;;;;;5075646;28;20278;-35
2023/06/08 01:25:30;;;;;;;;;;;15.00;71.30;;;;;;5075617;28;19974;-36
2023/06/08 01:28:12;;;;;;;;;;;15.00;71.30;;;;;;5075626;28;20042;-36
2023/06/08 01:30:48;;;;;;;;;;;15.00;71.20;;;;;;5075642;28;20346;-35
2023/06/08 01:33:24;;;;;;;;;;;15.00;71.10;;;;;;5075432;28;19999;-35
2023/06/08 01:36:28;;;;;;;;;;;15.00;71.00;;;;;;5075347;28;19916;-37
2023/06/08 01:39:06;;;;;;;;;;;15.00;71.00;;;;;;4993512;28;19913;-35
2023/06/08 01:41:36;;;;;;;;;;;14.90;71.30;;;;;;4993712;28;20073;-37
2023/06/08 01:44:02;;;;;;;;;;;14.90;71.40;;;;;;5040731;28;19954;-36
2023/06/08 01:46:30;;;;;;;;;;;14.80;71.80;;;;;;5075281;28;20333;-34
2023/06/08 01:48:58;;;;;;;;;;;14.70;72.00;;;;;;5075191;28;20256;-35
2023/06/08 01:51:24;;;;;;;;;;;14.70;71.80;;;;;;5075130;28;19935;-34
2023/06/08 01:53:58;;;;;;;;;;;14.80;71.70;;;;;;5074969;28;19913;-35
2023/06/08 01:56:26;;;;;;;;;;;14.80;71.80;;;;;;5075217;28;19909;-34
2023/06/08 01:58:52;;;;;;;;;;;14.80;71.80;;;;;;5075010;28;20398;-37
2023/06/08 02:01:17;;;;;;;;;;;14.70;71.70;;;;;;5075003;28;19908;-34
2023/06/08 02:03:43;;;;;;;;;;;14.80;71.60;;;;;;5074845;28;19999;-34
2023/06/08 02:06:08;;;;;;;;;;;14.80;71.70;;;;;;5073666;28;20002;-35
2023/06/08 02:08:34;;;;;;;;;;;14.80;71.90;;;;;;5074971;28;19909;-35
2023/06/08 02:10:59;;;;;;;;;;;14.70;71.90;;;;;;5075230;28;20337;-38
2023/06/08 02:13:25;;;;;;;;;;;14.80;72.00;;;;;;5073471;28;20374;-35
2023/06/08 02:15:51;;;;;;;;;;;14.70;72.80;;;;;;5074869;28;19908;-36
2023/06/08 02:18:19;;;;;;;;;;;14.70;72.30;;;;;;5074806;28;19908;-34
2023/06/08 02:20:45;;;;;;;;;;;14.60;72.70;;;;;;5074683;28;19951;-36
2023/06/08 02:23:10;;;;;;;;;;;14.60;72.80;;;;;;5074577;28;19951;-37
2023/06/08 02:25:35;;;;;;;;;;;14.60;72.90;;;;;;5074519;28;20398;-35
2023/06/08 02:28:01;;;;;;;;;;;14.50;72.90;;;;;;5074372;28;19908;-35
2023/06/08 02:30:26;;;;;;;;;;;14.50;72.90;;;;;;5074342;28;20448;-35
2023/06/08 02:32:53;;;;;;;;;;;14.50;72.90;;;;;;5074298;28;20366;-35
2023/06/08 02:35:18;;;;;;;;;;;14.60;72.90;;;;;;5073019;28;19914;-35
2023/06/08 02:37:44;;;;;;;;;;;14.50;73.50;;;;;;5074281;28;20003;-35
2023/06/08 02:40:10;;;;;;;;;;;14.50;73.10;;;;;;5074328;28;19916;-37
2023/06/08 02:42:35;;;;;;;;;;;14.50;73.20;;;;;;5074613;28;19908;-34
2023/06/08 02:45:01;;;;;;;;;;;14.40;73.40;;;;;;5074450;28;19909;-35
2023/06/08 02:47:26;;;;;;;;;;;14.40;73.40;;;;;;5074327;28;20152;-35
2023/06/08 02:49:52;;;;;;;;;;;14.40;73.50;;;;;;5073962;28;19909;-35
2023/06/08 02:52:17;;;;;;;;;;;14.40;73.90;;;;;;5073943;28;20410;-34
2023/06/08 02:54:43;;;;;;;;;;;14.30;73.80;;;;;;5073929;28;19916;-37
2023/06/08 02:57:08;;;;;;;;;;;14.30;73.70;;;;;;5073873;28;19935;-34
2023/06/08 02:59:36;;;;;;;;;;;14.30;74.00;;;;;;5073678;28;20310;-41
2023/06/08 03:02:01;;;;;;;;;;;14.30;74.30;;;;;;5073696;28;19962;-35
2023/06/08 03:04:28;;;;;;;;;;;14.20;74.30;;;;;;5073688;28;19920;-36
2023/06/08 03:06:53;;;;;;;;;;;14.20;74.40;;;;;;5073750;28;20294;-36
2023/06/08 03:09:28;;;;;;;;;;;14.20;74.30;;;;;;5073638;28;19909;-34
2023/06/08 03:11:54;;;;;;;;;;;14.20;74.50;;;;;;5073621;28;19967;-34
2023/06/08 03:14:20;;;;;;;;;;;14.10;74.50;;;;;;5073459;28;20364;-35
2023/06/08 03:16:46;;;;;;;;;;;14.10;74.90;;;;;;5073592;28;19908;-33
2023/06/08 03:19:12;;;;;;;;;;;14.00;74.50;;;;;;5072108;28;20384;-35
2023/06/08 03:21:38;;;;;;;;;;;14.00;74.60;;;;;;5073391;28;19955;-35
2023/06/08 03:24:04;;;;;;;;;;;14.00;74.60;;;;;;5072922;28;20164;-35
2023/06/08 03:26:29;;;;;;;;;;;14.00;75.20;;;;;;5073295;28;19917;-35
2023/06/08 03:28:55;;;;;;;;;;;13.90;75.20;;;;;;5073217;28;19915;-35
2023/06/08 03:31:21;;;;;;;;;;;13.80;75.40;;;;;;5073326;28;19912;-35
2023/06/08 03:33:46;;;;;;;;;;;13.80;75.60;;;;;;5073107;28;19912;-36
2023/06/08 03:36:12;;;;;;;;;;;13.70;75.70;;;;;;5073168;28;19966;-35
2023/06/08 03:38:38;;;;;;;;;;;13.70;75.70;;;;;;5072958;28;19959;-35
2023/06/08 03:41:03;;;;;;;;;;;13.60;76.10;;;;;;5072937;28;19999;-39
2023/06/08 03:43:28;;;;;;;;;;;13.50;76.00;;;;;;5071763;28;19915;-36
2023/06/08 03:45:54;;;;;;;;;;;13.50;76.20;;;;;;5072895;28;20578;-35
2023/06/08 03:48:20;;;;;;;;;;;13.50;76.40;;;;;;5072700;28;19938;-33
2023/06/08 03:50:45;;;;;;;;;;;13.50;76.70;;;;;;5072811;28;19916;-34
2023/06/08 03:53:11;;;;;;;;;;;13.40;76.60;;;;;;5072711;28;19912;-35
2023/06/08 03:55:37;;;;;;;;;;;13.40;77.10;;;;;;5072687;28;20276;-35
2023/06/08 03:58:02;;;;;;;;;;;13.30;77.40;;;;;;5072765;28;19961;-36
2023/06/08 04:00:29;;;;;;;;;;;13.30;77.20;;;;;;5072624;28;19912;-35
2023/06/08 04:02:55;;;;;;;;;;;13.30;77.00;;;;;;5072451;28;19932;-35
2023/06/08 04:05:20;;;;;;;;;;;13.40;76.90;;;;;;5072323;28;19928;-35
2023/06/08 04:07:47;;;;;;;;;;;13.40;76.90;;;;;;5072448;28;19917;-34
2023/06/08 04:10:13;;;;;;;;;;;13.40;76.80;;;;;;5072487;28;19909;-37
2023/06/08 04:12:39;;;;;;;;;;;13.50;76.50;;;;;;5070931;28;19970;-35
2023/06/08 04:15:05;;;;;;;;;;;13.50;76.30;;;;;;5072426;28;19908;-35
2023/06/08 04:17:31;;;;;;;;;;;13.60;76.20;;;;;;5072497;28;20015;-37
2023/06/08 04:19:56;;;;;;;;;;;13.60;76.10;;;;;;5072454;28;19912;-35
2023/06/08 04:22:22;;;;;;;;;;;13.60;76.00;;;;;;5072321;28;19995;-37
2023/06/08 04:24:48;;;;;;;;;;;13.70;75.90;;;;;;5072240;28;19936;-33
2023/06/08 04:27:13;;;;;;;;;;;13.70;75.80;;;;;;5072638;28;20004;-37
2023/06/08 04:29:40;;;;;;;;;;;13.70;75.70;;;;;;5072336;28;19908;-34
2023/06/08 04:32:05;;;;;;;;;;;13.70;75.70;;;;;;5072181;28;19999;-34
2023/06/08 04:34:31;;;;;;;;;;;13.80;75.80;;;;;;5072141;28;20026;-35
2023/06/08 04:36:57;;;;;;;;;;;13.80;75.80;;;;;;5071340;28;19909;-35
2023/06/08 04:39:22;;;;;;;;;;;13.80;76.10;;;;;;5072025;28;19920;-35
2023/06/08 04:41:49;;;;;;;;;;;13.80;75.90;;;;;;5072120;28;20317;-34
2023/06/08 04:44:20;;;;;;;;;;;13.80;75.90;;;;;;5072360;28;19909;-34
2023/06/08 04:46:46;;;;;;;;;;;13.80;75.80;;;;;;5072156;28;19916;-34
2023/06/08 04:49:12;;;;;;;;;;;13.80;75.80;;;;;;5072166;28;20000;-35
2023/06/08 04:51:39;;;;;;;;;;;13.90;75.60;;;;;;5072033;28;19951;-35
2023/06/08 04:54:05;;;;;;;;;;;13.90;75.40;;;;;;5071895;28;19935;-34
2023/06/08 04:56:33;;;;;;;;;;;14.00;75.40;;;;;;5072026;28;20003;-36
2023/06/08 04:58:59;;;;;;;;;;;14.00;75.30;;;;;;5071871;28;19962;-39
2023/06/08 05:01:24;;;;;;;;;;;14.00;75.30;;;;;;5072000;28;19908;-35
2023/06/08 05:03:50;;;;;;;;;;;14.00;75.20;;;;;;5071574;28;20298;-34
2023/06/08 05:06:15;;;;;;;;;;;14.10;75.30;;;;;;5071989;28;19916;-36
2023/06/08 05:08:41;;;;;;;;;;;14.10;75.20;;;;;;5071865;28;19920;-35
2023/06/08 05:11:06;;;;;;;;;;;14.10;75.00;;;;;;5071817;28;19920;-36
2023/06/08 05:13:32;;;;;;;;;;;14.20;74.90;;;;;;5071831;28;19912;-36
2023/06/08 05:15:58;;;;;;;;;;;14.30;74.80;;;;;;5071758;28;20318;-34
2023/06/08 05:18:28;;;;;;;;;;;14.30;74.70;;;;;;5071724;28;19913;-36
2023/06/08 05:20:53;;;;;;;;;;;14.30;74.60;;;;;;5072043;28;19913;-35
2023/06/08 05:23:19;;;;;;;;;;;14.40;74.60;;;;;;5071865;28;19920;-34
2023/06/08 05:25:44;;;;;;;;;;;14.40;74.50;;;;;;5071884;28;19912;-35
2023/06/08 05:28:10;;;;;;;;;;;14.40;74.40;;;;;;5071744;28;20291;-35
2023/06/08 05:30:35;;;;;;;;;;;14.40;74.40;;;;;;5071706;28;20377;-36
2023/06/08 05:33:01;;;;;;;;;;;14.40;74.40;;;;;;5071587;28;19913;-34
2023/06/08 05:35:28;;;;;;;;;;;14.50;74.40;;;;;;5071206;28;20328;-34
2023/06/08 05:37:54;;;;;;;;;;;14.50;74.30;;;;;;5072177;28;20413;-37
2023/06/08 05:40:19;;;;;;;;;;;14.50;74.20;;;;;;5071490;28;20094;-35
2023/06/08 05:42:45;;;;;;;;;;;14.60;74.10;;;;;;5071695;28;19919;-34
2023/06/08 05:45:11;;;;;;;;;;;14.60;73.90;;;;;;5071457;28;19916;-34
2023/06/08 05:47:37;;;;;;;;;;;14.70;73.90;;;;;;5072962;28;19913;-35
2023/06/08 05:50:02;;;;;;;;;;;14.70;73.80;;;;;;5075275;28;19920;-35
2023/06/08 05:52:28;;;;;;;;;;;14.80;73.80;;;;;;5075176;28;19916;-33
2023/06/08 05:54:53;;;;;;;;;;;14.80;73.60;;;;;;5073791;28;19912;-34
2023/06/08 05:57:19;;;;;;;;;;;14.90;73.50;;;;;;5075098;28;19912;-34
2023/06/08 05:59:45;;;;;;;;;;;14.90;73.30;;;;;;5074998;28;19916;-35
2023/06/08 06:02:11;;;;;;;;;;;15.00;73.30;;;;;;5073695;28;19999;-34
2023/06/08 06:04:36;;;;;;;;;;;15.10;73.10;;;;;;5074953;28;20293;-35
2023/06/08 06:07:03;;;;;;;;;;;15.10;72.90;;;;;;5075322;28;19920;-35
2023/06/08 06:09:29;;;;;;;;;;;15.10;72.90;;;;;;5074930;28;20425;-34
2023/06/08 06:11:54;;;;;;;;;;;15.20;72.80;;;;;;5074771;28;19920;-35
2023/06/08 06:14:20;;;;;;;;;;;15.20;72.70;;;;;;5075220;28;19912;-38
2023/06/08 06:16:45;;;;;;;;;;;15.30;72.70;;;;;;5074808;28;19916;-35
2023/06/08 06:19:11;;;;;;;;;;;15.40;73.20;;;;;;5074699;28;19925;-35
2023/06/08 06:21:36;;;;;;;;;;;15.40;72.40;;;;;;5074786;28;20358;-33
2023/06/08 06:24:02;;;;;;;;;;;15.50;72.30;;;;;;5073328;28;19935;-35
2023/06/08 06:26:28;;;;;;;;;;;15.60;72.80;;;;;;5074670;28;19920;-34
2023/06/08 06:28:53;;;;;;;;;;;15.70;71.90;;;;;;5074579;28;19912;-35
2023/06/08 06:31:19;;;;;;;;;;;15.80;71.80;;;;;;5074772;28;19912;-35
2023/06/08 06:33:45;;;;;;;;;;;15.90;71.60;;;;;;5074423;28;19972;-35
2023/06/08 06:36:10;;;;;;;;;;;15.90;71.40;;;;;;5074274;28;19966;-35
2023/06/08 06:38:36;;;;;;;;;;;15.90;71.30;;;;;;5074349;28;20007;-35
2023/06/08 06:41:03;;;;;;;;;;;15.80;71.20;;;;;;5074297;28;19912;-35
2023/06/08 06:43:28;;;;;;;;;;;15.90;71.20;;;;;;5074080;28;19913;-35
2023/06/08 06:45:54;;;;;;;;;;;15.90;71.20;;;;;;5074088;28;20327;-36
2023/06/08 06:48:20;;;;;;;;;;;15.90;71.20;;;;;;5073991;28;19912;-34
2023/06/08 06:50:46;;;;;;;;;;;15.80;71.10;;;;;;5074026;28;19992;-35
2023/06/08 06:53:12;;;;;;;;;;;15.80;71.10;;;;;;5073895;28;19963;-35
2023/06/08 06:55:38;;;;;;;;;;;15.90;71.10;;;;;;5073812;28;19912;-41
2023/06/08 06:58:04;;;;;;;;;;;15.90;71.00;;;;;;5073784;28;19943;-37
2023/06/08 07:00:32;;;;;;;;;;;15.90;71.00;;;;;;5072924;28;19923;-39
2023/06/08 07:02:57;;;;;;;;;;;15.90;70.80;;;;;;5073672;28;19935;-35
2023/06/08 07:05:23;;;;;;;;;;;16.00;70.80;;;;;;5073562;28;19916;-35
2023/06/08 07:07:49;;;;;;;;;;;16.00;70.60;;;;;;5073724;28;19912;-34
2023/06/08 07:10:14;;;;;;;;;;;16.10;70.60;;;;;;5073434;28;19999;-35
2023/06/08 07:12:40;;;;;;;;;;;16.20;70.50;;;;;;5073458;28;19917;-34
2023/06/08 07:15:06;;;;;;;;;;;16.30;70.30;;;;;;5073348;28;19913;-36
2023/06/08 07:17:31;;;;;;;;;;;16.40;70.10;;;;;;5073215;28;19912;-33
2023/06/08 07:19:58;;;;;;;;;;;16.50;69.90;;;;;;5073142;28;20015;-35
2023/06/08 07:22:23;;;;;;;;;;;16.70;69.60;;;;;;5073216;28;19912;-34
2023/06/08 07:24:49;;;;;;;;;;;16.70;69.30;;;;;;5073681;28;20378;-35
2023/06/08 07:27:14;;;;;;;;;;;16.80;69.10;;;;;;5073272;28;19920;-38
2023/06/08 07:29:40;;;;;;;;;;;16.90;69.20;;;;;;5073336;28;19922;-35
2023/06/08 07:32:06;;;;;;;;;;;16.90;69.00;;;;;;5073038;28;19913;-39
2023/06/08 07:34:32;;;;;;;;;;;16.90;68.80;;;;;;5072863;28;20398;-35
2023/06/08 07:36:58;;;;;;;;;;;16.90;68.80;;;;;;5071703;28;19916;-35
2023/06/08 07:39:23;;;;;;;;;;;16.90;68.90;;;;;;5071848;28;20368;-36
2023/06/08 07:41:48;;;;;;;;;;;16.90;68.80;;;;;;5071754;28;20410;-36
2023/06/08 07:44:14;;;;;;;;;;;16.90;68.70;;;;;;5072170;28;20002;-34
2023/06/08 07:46:39;;;;;;;;;;;16.90;68.80;;;;;;5072495;28;19934;-34
2023/06/08 07:49:05;;;;;;;;;;;17.00;68.60;;;;;;5072778;28;19966;-37
2023/06/08 07:51:30;;;;;;;;;;;17.10;68.60;;;;;;5072845;28;19912;-35
2023/06/08 07:53:56;;;;;;;;;;;17.20;68.40;;;;;;5072769;28;19912;-36
2023/06/08 07:56:21;;;;;;;;;;;17.30;68.30;;;;;;5072758;28;19912;-33
2023/06/08 07:58:48;;;;;;;;;;;17.40;68.00;;;;;;5072656;28;19916;-34
2023/06/08 08:01:13;;;;;;;;;;;17.50;68.00;;;;;;5071339;28;19920;-36
2023/06/08 08:03:39;;;;;;;;;;;17.60;67.70;;;;;;5072408;28;19919;-34
2023/06/08 08:06:05;;;;;;;;;;;17.60;67.60;;;;;;5072361;28;19916;-38
2023/06/08 08:08:31;;;;;;;;;;;17.70;67.30;;;;;;5071129;28;20001;-36
2023/06/08 08:10:56;;;;;;;;;;;17.70;67.30;;;;;;5072481;28;19912;-38
2023/06/08 08:13:22;;;;;;;;;;;17.70;67.20;;;;;;5071226;28;20375;-36
2023/06/08 08:15:47;;;;;;;;;;;17.80;67.10;;;;;;5071070;28;19919;-36
2023/06/08 08:18:13;;;;;;;;;;;17.90;67.10;;;;;;5072374;28;19919;-36
2023/06/08 08:20:38;;;;;;;;;;;17.90;66.80;;;;;;5072290;28;19964;-36
2023/06/08 08:23:05;;;;;;;;;;;18.00;66.70;;;;;;5072304;28;19919;-39
2023/06/08 08:25:31;;;;;;;;;;;18.00;66.50;;;;;;5072302;28;19946;-35
2023/06/08 08:27:56;;;;;;;;;;;18.10;66.40;;;;;;5072339;28;19952;-38
2023/06/08 08:30:22;;;;;;;;;;;18.10;66.40;;;;;;5072097;28;19920;-34
2023/06/08 08:32:48;;;;;;;;;;;18.10;66.40;;;;;;5072207;28;19913;-36
2023/06/08 08:35:14;;;;;;;;;;;18.10;66.10;;;;;;5072112;28;19954;-36
2023/06/08 08:37:42;;;;;;;;;;;18.20;66.20;;;;;;5070752;28;20699;-35
2023/06/08 08:40:09;;;;;;;;;;;18.20;66.10;;;;;;5072130;28;19924;-36
2023/06/08 08:42:37;;;;;;;;;;;18.20;66.00;;;;;;5071975;28;19919;-36
2023/06/08 08:45:04;;;;;;;;;;;18.20;66.00;;;;;;5071993;28;19913;-36
2023/06/08 08:47:30;;;;;;;;;;;18.20;65.90;;;;;;5072055;28;20207;-36
2023/06/08 08:50:06;;;;;;;;;;;18.30;65.80;;;;;;5071993;28;19919;-37
2023/06/08 08:52:33;;;;;;;;;;;18.30;65.80;;;;;;5071874;28;19912;-38
2023/06/08 08:55:02;;;;;;;;;;;18.30;65.80;;;;;;5071986;28;20421;-35
2023/06/08 08:57:28;;;;;;;;;;;18.30;65.80;;;;;;5072016;28;19947;-36
2023/06/08 08:59:54;;;;;;;;;;;18.40;65.40;;;;;;5071711;28;19948;-36
2023/06/08 09:02:20;;;;;;;;;;;18.30;65.30;;;;;;5071888;28;19919;-36
2023/06/08 09:04:46;;;;;;;;;;;18.30;65.20;;;;;;5071830;28;20003;-36
2023/06/08 09:07:11;;;;;;;;;;;18.40;65.40;;;;;;5071734;28;20011;-36
2023/06/08 09:09:36;;;;;;;;;;;18.40;65.50;;;;;;5072025;28;19917;-38
2023/06/08 09:12:04;;;;;;;;;;;18.40;65.40;;;;;;5071694;28;19963;-35
2023/06/08 09:14:30;;;;;;;;;;;18.50;65.40;;;;;;5071720;28;20312;-36
2023/06/08 09:16:58;;;;;;;;;;;18.60;64.90;;;;;;5071876;28;19917;-37
2023/06/08 09:19:24;;;;;;;;;;;18.50;64.60;;;;;;5071965;28;20409;-36
2023/06/08 09:21:50;;;;;;;;;;;18.50;64.70;;;;;;5071613;28;19951;-35
2023/06/08 09:24:16;;;;;;;;;;;18.60;64.80;;;;;;5075711;28;19920;-37
2023/06/08 09:26:42;;;;;;;;;;;18.70;64.70;;;;;;5075578;28;19913;-36
2023/06/08 09:29:07;;;;;;;;;;;18.90;64.60;;;;;;5075454;28;19912;-34
2023/06/08 09:31:34;;;;;;;;;;;19.00;64.30;;;;;;5075940;28;20036;-35
2023/06/08 09:34:09;;;;;;;;;;;19.20;63.80;;;;;;5075503;28;19913;-35
2023/06/08 09:36:38;;;;;;;;;;;19.40;63.50;;;;;;5075381;28;20287;-36
2023/06/08 09:39:05;;;;;;;;;;;19.40;63.20;;;;;;5075268;28;19969;-35
2023/06/08 09:41:32;;;;;;;;;;;19.50;63.20;;;;;;5075365;28;19912;-36
2023/06/08 09:43:57;;;;;;;;;;;19.50;63.10;;;;;;5075193;28;19913;-35
2023/06/08 09:46:32;;;;;;;;;;;19.60;63.00;;;;;;5075161;28;19920;-35
2023/06/08 09:48:58;;;;;;;;;;;19.70;63.00;;;;;;5075059;28;20003;-35
2023/06/08 09:51:23;;;;;;;;;;;19.70;62.80;;;;;;5074977;28;19948;-34
2023/06/08 09:53:53;;;;;;;;;;;19.80;62.60;;;;;;5075121;28;19919;-35
2023/06/08 09:56:18;;;;;;;;;;;19.90;62.30;;;;;;5075128;28;20283;-35
2023/06/08 09:58:46;;;;;;;;;;;20.00;62.00;;;;;;5075003;28;20007;-36
2023/06/08 10:01:12;;;;;;;;;;;20.00;61.60;;;;;;5074968;28;19924;-35
2023/06/08 10:03:39;;;;;;;;;;;20.00;61.80;;;;;;5074901;28;19919;-35
2023/06/08 10:06:06;;;;;;;;;;;20.10;61.70;;;;;;5074712;28;19956;-36
2023/06/08 10:08:32;;;;;;;;;;;20.20;61.80;;;;;;5074842;28;19912;-35
2023/06/08 10:10:57;;;;;;;;;;;20.40;61.80;;;;;;5074771;28;19919;-36
2023/06/08 10:13:24;;;;;;;;;;;20.50;61.60;;;;;;5074872;28;19913;-36
2023/06/08 10:15:51;;;;;;;;;;;20.70;61.20;;;;;;5073553;28;19916;-35
2023/06/08 10:18:16;;;;;;;;;;;20.80;60.90;;;;;;5074750;28;19913;-38
2023/06/08 10:20:42;;;;;;;;;;;20.90;60.90;;;;;;5074674;28;19927;-40
2023/06/08 10:23:08;;;;;;;;;;;21.00;60.90;;;;;;5073485;28;19916;-37
2023/06/08 10:25:34;;;;;;;;;;;21.10;60.30;;;;;;5074508;28;19912;-34
2023/06/08 10:28:03;;;;;;;;;;;21.30;60.40;;;;;;5074523;28;20410;-35
2023/06/08 10:30:30;;;;;;;;;;;21.40;60.40;;;;;;5074537;28;20273;-35
2023/06/08 10:33:15;;;;;;;;;;;21.50;60.30;;;;;;5074307;28;19913;-37
2023/06/08 10:35:41;;;;;;;;;;;21.60;60.30;;;;;;5073592;28;19913;-36
2023/06/08 10:38:11;;;;;;;;;;;21.70;60.10;;;;;;5074321;28;20340;-36
2023/06/08 10:40:47;;;;;;;;;;;21.70;60.00;;;;;;5074076;28;19967;-36
2023/06/08 10:43:12;;;;;;;;;;;21.80;59.50;;;;;;5074198;28;19913;-36
2023/06/08 10:45:39;;;;;;;;;;;21.90;59.40;;;;;;5074076;28;19921;-35
2023/06/08 10:48:09;;;;;;;;;;;22.00;59.20;;;;;;5074062;28;19913;-35
2023/06/08 10:50:37;;;;;;;;;;;22.20;59.10;;;;;;5074054;28;19944;-37
2023/06/08 10:53:03;;;;;;;;;;;22.20;58.80;;;;;;5073867;28;19912;-35
2023/06/08 10:55:29;;;;;;;;;;;22.40;58.70;;;;;;5074021;28;20394;-39
2023/06/08 10:58:05;;;;;;;;;;;22.50;58.10;;;;;;5073727;28;19913;-36
2023/06/08 11:00:32;;;;;;;;;;;22.60;58.40;;;;;;5073724;28;19924;-33
2023/06/08 11:03:03;;;;;;;;;;;22.70;58.10;;;;;;5073505;28;20394;-35
2023/06/08 11:05:33;;;;;;;;;;;22.90;58.20;;;;;;5073566;28;19916;-36
2023/06/08 11:08:00;;;;;;;;;;;23.00;58.10;;;;;;5073611;28;19912;-36
2023/06/08 11:10:26;;;;;;;;;;;23.10;57.70;;;;;;5073536;28;19912;-36
2023/06/08 11:12:51;;;;;;;;;;;23.20;57.50;;;;;;5073432;28;20015;-35
2023/06/08 11:15:18;;;;;;;;;;;23.30;57.10;;;;;;5073662;28;19988;-36
2023/06/08 11:17:50;;;;;;;;;;;23.40;56.50;;;;;;5071920;28;19981;-38
2023/06/08 11:20:15;;;;;;;;;;;23.30;56.40;;;;;;5073309;28;19927;-36
2023/06/08 11:22:41;;;;;;;;;;;23.40;56.20;;;;;;5073472;28;20022;-36
2023/06/08 11:25:07;;;;;;;;;;;23.40;56.20;;;;;;5073254;28;19912;-36
2023/06/08 11:27:33;;;;;;;;;;;23.50;55.80;;;;;;5073333;28;19912;-35
2023/06/08 11:29:58;;;;;;;;;;;23.60;56.00;;;;;;5073276;28;19912;-36
2023/06/08 11:32:25;;;;;;;;;;;23.70;55.90;;;;;;5073124;28;19943;-35
2023/06/08 11:34:51;;;;;;;;;;;23.90;55.40;;;;;;5073161;28;19912;-36
2023/06/08 11:37:17;;;;;;;;;;;23.90;55.20;;;;;;5073080;28;19920;-36
2023/06/08 11:39:43;;;;;;;;;;;24.00;54.90;;;;;;5073027;28;19923;-35
2023/06/08 11:42:08;;;;;;;;;;;24.10;54.80;;;;;;5073102;28;19943;-36
2023/06/08 11:44:34;;;;;;;;;;;24.10;55.00;;;;;;5071661;28;20312;-36
2023/06/08 11:46:59;;;;;;;;;;;24.20;55.10;;;;;;5072537;28;19994;-36
2023/06/08 11:49:25;;;;;;;;;;;24.40;55.10;;;;;;5072921;28;20376;-34
2023/06/08 11:51:50;;;;;;;;;;;24.60;55.10;;;;;;5072738;28;20372;-35
2023/06/08 11:54:16;;;;;;;;;;;24.70;54.90;;;;;;5072642;28;19913;-36
2023/06/08 11:56:45;;;;;;;;;;;24.80;54.60;;;;;;5072786;28;19951;-36
2023/06/08 11:59:11;;;;;;;;;;;24.90;54.30;;;;;;5072650;28;19921;-35
2023/06/08 12:01:37;;;;;;;;;;;24.90;54.20;;;;;;5072886;28;19919;-35
2023/06/08 12:04:11;;;;;;;;;;;25.00;54.10;;;;;;5071010;28;19912;-35
2023/06/08 12:06:37;;;;;;;;;;;25.10;54.20;;;;;;5072813;28;19917;-36
2023/06/08 12:09:06;;;;;;;;;;;25.30;54.00;;;;;;5072500;28;20301;-35
2023/06/08 12:11:34;;;;;;;;;;;25.30;53.80;;;;;;5072541;28;19995;-35
2023/06/08 12:13:59;;;;;;;;;;;25.40;53.70;;;;;;5072425;28;19912;-34
2023/06/08 12:16:25;;;;;;;;;;;25.50;53.40;;;;;;5072376;28;20323;-35
2023/06/08 12:18:50;;;;;;;;;;;25.50;52.90;;;;;;5070991;28;19923;-35
2023/06/08 12:21:18;;;;;;;;;;;25.60;53.00;;;;;;5072394;28;20003;-36
2023/06/08 12:23:44;;;;;;;;;;;25.60;52.80;;;;;;5070962;28;20427;-35
2023/06/08 12:26:10;;;;;;;;;;;25.70;52.50;;;;;;5072463;28;19966;-35
2023/06/08 12:28:35;;;;;;;;;;;25.80;52.50;;;;;;5072310;28;19916;-36
2023/06/08 12:31:01;;;;;;;;;;;25.90;52.60;;;;;;5072285;28;19918;-35
2023/06/08 12:33:27;;;;;;;;;;;26.00;52.00;;;;;;5072173;28;19940;-36
2023/06/08 12:35:54;;;;;;;;;;;26.10;52.30;;;;;;5072146;28;19912;-36
2023/06/08 12:38:22;;;;;;;;;;;26.10;52.10;;;;;;5072431;28;19939;-36
2023/06/08 12:40:50;;;;;;;;;;;26.20;51.80;;;;;;5072053;28;19985;-42
2023/06/08 12:43:19;;;;;;;;;;;26.30;51.90;;;;;;5072379;28;19944;-36
2023/06/08 12:45:45;;;;;;;;;;;26.40;51.80;;;;;;5072155;28;19951;-34
2023/06/08 12:48:11;;;;;;;;;;;26.50;51.30;;;;;;5072064;28;19920;-36
2023/06/08 12:50:38;;;;;;;;;;;26.50;51.60;;;;;;5072103;28;19958;-35
2023/06/08 12:53:03;;;;;;;;;;;26.60;51.60;;;;;;5072131;28;20456;-36
2023/06/08 12:55:29;;;;;;;;;;;26.80;51.60;;;;;;5072218;28;19913;-36
2023/06/08 12:57:54;;;;;;;;;;;26.90;51.10;;;;;;5071300;28;20272;-34
2023/06/08 13:00:22;;;;;;;;;;;26.90;50.80;;;;;;5072102;28;19970;-36
2023/06/08 13:02:51;;;;;;;;;;;27.00;51.00;;;;;;5072142;28;19912;-36
2023/06/08 13:05:17;;;;;;;;;;;27.10;51.00;;;;;;5071775;28;20440;-35
2023/06/08 13:07:43;;;;;;;;;;;27.20;50.10;;;;;;5072003;28;19912;-34
2023/06/08 13:10:09;;;;;;;;;;;27.20;50.20;;;;;;5072060;28;19913;-36
2023/06/08 13:12:34;;;;;;;;;;;27.40;50.30;;;;;;5072042;28;19912;-36
2023/06/08 13:14:59;;;;;;;;;;;27.40;50.30;;;;;;5072134;28;19922;-36
2023/06/08 13:17:25;;;;;;;;;;;27.50;50.00;;;;;;5071884;28;19912;-36
2023/06/08 13:19:52;;;;;;;;;;;27.70;49.80;;;;;;5071925;28;19982;-36
2023/06/08 13:22:18;;;;;;;;;;;27.70;49.50;;;;;;5071998;28;19912;-37
2023/06/08 13:24:44;;;;;;;;;;;27.80;49.60;;;;;;5071728;28;19917;-34
2023/06/08 13:27:09;;;;;;;;;;;27.80;49.60;;;;;;5071799;28;19912;-37
2023/06/08 13:29:35;;;;;;;;;;;27.90;49.50;;;;;;5071768;28;19913;-36
2023/06/08 13:32:00;;;;;;;;;;;28.00;48.60;;;;;;5071846;28;19912;-37
2023/06/08 13:34:27;;;;;;;;;;;28.10;48.90;;;;;;5071636;28;20459;-36
2023/06/08 13:36:52;;;;;;;;;;;28.10;48.90;;;;;;5071647;28;20057;-36
2023/06/08 13:39:19;;;;;;;;;;;28.20;49.00;;;;;;5071613;28;20007;-35
2023/06/08 13:41:45;;;;;;;;;;;28.40;48.70;;;;;;5071610;28;19912;-35
2023/06/08 13:44:12;;;;;;;;;;;28.40;48.50;;;;;;5071536;28;20403;-35
2023/06/08 13:46:38;;;;;;;;;;;28.50;48.50;;;;;;5070311;28;19974;-37
2023/06/08 13:49:04;;;;;;;;;;;28.50;48.60;;;;;;5071488;28;19948;-36
2023/06/08 13:51:30;;;;;;;;;;;28.70;48.60;;;;;;5071663;28;20411;-38
2023/06/08 13:53:55;;;;;;;;;;;28.70;48.50;;;;;;5071519;28;19919;-35
2023/06/08 13:56:21;;;;;;;;;;;28.80;48.60;;;;;;5071519;28;20398;-37
2023/06/08 13:58:58;;;;;;;;;;;28.90;48.20;;;;;;5071441;28;19913;-37
2023/06/08 14:01:23;;;;;;;;;;;29.00;48.40;;;;;;5071475;28;20387;-36
2023/06/08 14:03:49;;;;;;;;;;;29.10;47.10;;;;;;5071402;28;20027;-36
2023/06/08 14:06:14;;;;;;;;;;;29.00;47.00;;;;;;5071464;28;19969;-34
2023/06/08 14:08:40;;;;;;;;;;;29.00;46.50;;;;;;5072929;28;19970;-36
2023/06/08 14:11:06;;;;;;;;;;;29.00;46.70;;;;;;5074907;28;19912;-34
2023/06/08 14:13:32;;;;;;;;;;;29.00;46.50;;;;;;5074796;28;20461;-37